sensor_id;sensor_type;location;lat;lon;timestamp;P1;durP1;ratioP1;P2;durP2;ratioP2
8683;SDS011;4379;59.744;18.206;2023-07-24T00:01:55;2.23;;;2.10;;
8683;SDS011;4379;59.744;18.206;2023-07-24T00:04:22;2.10;;;2.00;;
8683;SDS011;4379;59.744;18.206;2023-07-24T00:06:49;1.90;;;1.77;;
8683;SDS011;4379;59.744;18.206;2023-07-24T00:09:17;2.07;;;1.97;;
8683;SDS011;4379;59.744;18.206;2023-07-24T00:11:44;1.97;;;1.87;;
8683;SDS011;4379;59.744;18.206;2023-07-24T00:14:11;2.30;;;1.80;;
8683;SDS011;4379;59.744;18.206;2023-07-24T00:16:39;1.90;;;1.83;;
8683;SDS011;4379;59.744;18.206;2023-07-24T00:19:06;2.03;;;1.90;;
8683;SDS011;4379;59.744;18.206;2023-07-24T00:21:34;2.00;;;1.90;;
8683;SDS011;4379;59.744;18.206;2023-07-24T00:24:01;2.10;;;2.00;;
8683;SDS011;4379;59.744;18.206;2023-07-24T00:26:28;1.97;;;1.83;;
8683;SDS011;4379;59.744;18.206;2023-07-24T00:28:56;1.90;;;1.80;;
8683;SDS011;4379;59.744;18.206;2023-07-24T00:31:23;1.50;;;1.50;;
8683;SDS011;4379;59.744;18.206;2023-07-24T00:33:50;1.90;;;1.80;;
8683;SDS011;4379;59.744;18.206;2023-07-24T00:36:17;2.10;;;2.00;;
8683;SDS011;4379;59.744;18.206;2023-07-24T00:38:44;2.40;;;2.30;;
8683;SDS011;4379;59.744;18.206;2023-07-24T00:41:11;2.50;;;2.30;;
8683;SDS011;4379;59.744;18.206;2023-07-24T00:43:39;2.23;;;2.13;;
8683;SDS011;4379;59.744;18.206;2023-07-24T00:46:08;2.30;;;2.20;;
8683;SDS011;4379;59.744;18.206;2023-07-24T00:48:37;2.23;;;2.13;;
8683;SDS011;4379;59.744;18.206;2023-07-24T00:51:05;2.10;;;2.00;;
8683;SDS011;4379;59.744;18.206;2023-07-24T00:53:33;2.17;;;2.07;;
8683;SDS011;4379;59.744;18.206;2023-07-24T00:56:00;3.13;;;2.00;;
8683;SDS011;4379;59.744;18.206;2023-07-24T00:58:28;2.37;;;2.27;;
8683;SDS011;4379;59.744;18.206;2023-07-24T01:00:55;2.07;;;1.97;;
8683;SDS011;4379;59.744;18.206;2023-07-24T01:03:23;2.50;;;2.40;;
8683;SDS011;4379;59.744;18.206;2023-07-24T01:06:01;2.50;;;2.40;;
8683;SDS011;4379;59.744;18.206;2023-07-24T01:08:29;2.30;;;2.20;;
8683;SDS011;4379;59.744;18.206;2023-07-24T01:10:57;2.40;;;2.30;;
8683;SDS011;4379;59.744;18.206;2023-07-24T01:13:31;2.63;;;2.50;;
8683;SDS011;4379;59.744;18.206;2023-07-24T01:16:04;2.80;;;1.90;;
8683;SDS011;4379;59.744;18.206;2023-07-24T01:18:36;2.20;;;2.10;;
8683;SDS011;4379;59.744;18.206;2023-07-24T01:21:08;2.50;;;2.30;;
8683;SDS011;4379;59.744;18.206;2023-07-24T01:26:17;2.80;;;2.60;;
8683;SDS011;4379;59.744;18.206;2023-07-24T01:28:44;2.60;;;2.50;;
8683;SDS011;4379;59.744;18.206;2023-07-24T01:31:12;2.47;;;2.30;;
8683;SDS011;4379;59.744;18.206;2023-07-24T01:33:40;2.20;;;2.17;;
8683;SDS011;4379;59.744;18.206;2023-07-24T01:36:07;2.37;;;2.27;;
8683;SDS011;4379;59.744;18.206;2023-07-24T01:38:36;2.53;;;2.43;;
8683;SDS011;4379;59.744;18.206;2023-07-24T01:41:04;2.23;;;2.13;;
8683;SDS011;4379;59.744;18.206;2023-07-24T01:43:32;2.20;;;2.10;;
8683;SDS011;4379;59.744;18.206;2023-07-24T01:45:59;2.10;;;1.93;;
8683;SDS011;4379;59.744;18.206;2023-07-24T01:48:26;2.00;;;2.00;;
8683;SDS011;4379;59.744;18.206;2023-07-24T01:50:53;2.10;;;2.00;;
8683;SDS011;4379;59.744;18.206;2023-07-24T01:53:21;2.20;;;2.10;;
8683;SDS011;4379;59.744;18.206;2023-07-24T01:55:48;2.30;;;2.00;;
8683;SDS011;4379;59.744;18.206;2023-07-24T01:58:15;2.80;;;2.20;;
8683;SDS011;4379;59.744;18.206;2023-07-24T02:00:42;2.53;;;2.40;;
8683;SDS011;4379;59.744;18.206;2023-07-24T02:03:10;2.47;;;2.30;;
8683;SDS011;4379;59.744;18.206;2023-07-24T02:05:37;2.53;;;2.43;;
8683;SDS011;4379;59.744;18.206;2023-07-24T02:08:04;2.63;;;2.37;;
8683;SDS011;4379;59.744;18.206;2023-07-24T02:10:32;2.30;;;2.20;;
8683;SDS011;4379;59.744;18.206;2023-07-24T02:13:02;3.20;;;2.07;;
8683;SDS011;4379;59.744;18.206;2023-07-24T02:15:30;2.40;;;2.20;;
8683;SDS011;4379;59.744;18.206;2023-07-24T02:17:57;2.50;;;2.40;;
8683;SDS011;4379;59.744;18.206;2023-07-24T02:20:24;2.70;;;2.50;;
8683;SDS011;4379;59.744;18.206;2023-07-24T02:22:51;2.90;;;2.80;;
8683;SDS011;4379;59.744;18.206;2023-07-24T02:25:18;2.73;;;2.53;;
8683;SDS011;4379;59.744;18.206;2023-07-24T02:27:46;2.93;;;2.73;;
8683;SDS011;4379;59.744;18.206;2023-07-24T02:30:13;3.53;;;2.67;;
8683;SDS011;4379;59.744;18.206;2023-07-24T02:32:40;2.47;;;2.27;;
8683;SDS011;4379;59.744;18.206;2023-07-24T02:35:07;2.27;;;2.17;;
8683;SDS011;4379;59.744;18.206;2023-07-24T02:37:35;2.17;;;2.07;;
8683;SDS011;4379;59.744;18.206;2023-07-24T02:40:02;2.20;;;2.00;;
8683;SDS011;4379;59.744;18.206;2023-07-24T02:42:30;2.90;;;1.90;;
8683;SDS011;4379;59.744;18.206;2023-07-24T02:44:57;2.23;;;2.00;;
8683;SDS011;4379;59.744;18.206;2023-07-24T02:47:24;2.17;;;2.07;;
8683;SDS011;4379;59.744;18.206;2023-07-24T02:49:51;2.57;;;1.93;;
8683;SDS011;4379;59.744;18.206;2023-07-24T02:52:18;2.07;;;1.90;;
8683;SDS011;4379;59.744;18.206;2023-07-24T02:54:45;2.50;;;2.30;;
8683;SDS011;4379;59.744;18.206;2023-07-24T02:57:13;2.43;;;2.23;;
8683;SDS011;4379;59.744;18.206;2023-07-24T02:59:40;2.33;;;2.23;;
8683;SDS011;4379;59.744;18.206;2023-07-24T03:02:07;2.30;;;2.20;;
8683;SDS011;4379;59.744;18.206;2023-07-24T03:04:34;2.37;;;2.27;;
8683;SDS011;4379;59.744;18.206;2023-07-24T03:07:01;2.50;;;2.30;;
8683;SDS011;4379;59.744;18.206;2023-07-24T03:09:29;2.00;;;1.90;;
8683;SDS011;4379;59.744;18.206;2023-07-24T03:11:56;2.00;;;1.90;;
8683;SDS011;4379;59.744;18.206;2023-07-24T03:14:23;2.83;;;1.97;;
8683;SDS011;4379;59.744;18.206;2023-07-24T03:16:50;3.30;;;2.10;;
8683;SDS011;4379;59.744;18.206;2023-07-24T03:19:18;2.00;;;1.80;;
8683;SDS011;4379;59.744;18.206;2023-07-24T03:21:46;2.30;;;2.10;;
8683;SDS011;4379;59.744;18.206;2023-07-24T03:24:14;1.90;;;1.80;;
8683;SDS011;4379;59.744;18.206;2023-07-24T03:26:41;2.20;;;2.10;;
8683;SDS011;4379;59.744;18.206;2023-07-24T03:29:08;1.83;;;1.83;;
8683;SDS011;4379;59.744;18.206;2023-07-24T03:31:35;1.90;;;1.80;;
8683;SDS011;4379;59.744;18.206;2023-07-24T03:34:03;1.63;;;1.63;;
8683;SDS011;4379;59.744;18.206;2023-07-24T03:36:30;1.93;;;1.83;;
8683;SDS011;4379;59.744;18.206;2023-07-24T03:38:57;2.00;;;1.90;;
8683;SDS011;4379;59.744;18.206;2023-07-24T03:41:24;2.80;;;1.83;;
8683;SDS011;4379;59.744;18.206;2023-07-24T03:43:52;2.27;;;1.80;;
8683;SDS011;4379;59.744;18.206;2023-07-24T03:46:19;2.13;;;1.93;;
8683;SDS011;4379;59.744;18.206;2023-07-24T03:48:46;1.80;;;1.70;;
8683;SDS011;4379;59.744;18.206;2023-07-24T03:51:14;2.70;;;2.03;;
8683;SDS011;4379;59.744;18.206;2023-07-24T03:53:42;2.87;;;2.13;;
8683;SDS011;4379;59.744;18.206;2023-07-24T03:56:09;2.23;;;2.00;;
8683;SDS011;4379;59.744;18.206;2023-07-24T03:58:37;2.10;;;2.00;;
8683;SDS011;4379;59.744;18.206;2023-07-24T04:01:06;1.70;;;1.60;;
8683;SDS011;4379;59.744;18.206;2023-07-24T04:03:34;1.50;;;1.50;;
8683;SDS011;4379;59.744;18.206;2023-07-24T04:06:02;3.77;;;1.93;;
8683;SDS011;4379;59.744;18.206;2023-07-24T04:08:29;2.00;;;1.90;;
8683;SDS011;4379;59.744;18.206;2023-07-24T04:10:56;1.80;;;1.80;;
8683;SDS011;4379;59.744;18.206;2023-07-24T04:13:23;1.87;;;1.57;;
8683;SDS011;4379;59.744;18.206;2023-07-24T04:15:51;1.80;;;1.70;;
8683;SDS011;4379;59.744;18.206;2023-07-24T04:18:18;1.30;;;1.30;;
8683;SDS011;4379;59.744;18.206;2023-07-24T04:20:45;1.90;;;1.80;;
8683;SDS011;4379;59.744;18.206;2023-07-24T04:23:12;2.03;;;1.80;;
8683;SDS011;4379;59.744;18.206;2023-07-24T04:25:40;2.80;;;2.13;;
8683;SDS011;4379;59.744;18.206;2023-07-24T04:28:07;1.80;;;1.70;;
8683;SDS011;4379;59.744;18.206;2023-07-24T04:30:34;1.67;;;1.60;;
8683;SDS011;4379;59.744;18.206;2023-07-24T04:33:01;1.40;;;1.40;;
8683;SDS011;4379;59.744;18.206;2023-07-24T04:35:29;1.20;;;1.10;;
8683;SDS011;4379;59.744;18.206;2023-07-24T04:37:56;1.80;;;1.70;;
8683;SDS011;4379;59.744;18.206;2023-07-24T04:40:24;1.60;;;1.60;;
8683;SDS011;4379;59.744;18.206;2023-07-24T04:42:51;1.58;;;1.52;;
8683;SDS011;4379;59.744;18.206;2023-07-24T04:45:18;1.42;;;1.42;;
8683;SDS011;4379;59.744;18.206;2023-07-24T04:47:49;1.50;;;1.40;;
8683;SDS011;4379;59.744;18.206;2023-07-24T04:50:16;1.40;;;1.33;;
8683;SDS011;4379;59.744;18.206;2023-07-24T04:52:43;1.60;;;1.50;;
8683;SDS011;4379;59.744;18.206;2023-07-24T04:55:11;1.27;;;1.17;;
8683;SDS011;4379;59.744;18.206;2023-07-24T04:57:38;1.08;;;1.08;;
8683;SDS011;4379;59.744;18.206;2023-07-24T05:00:05;1.83;;;1.60;;
8683;SDS011;4379;59.744;18.206;2023-07-24T05:02:33;1.20;;;1.20;;
8683;SDS011;4379;59.744;18.206;2023-07-24T05:05:00;1.23;;;1.23;;
8683;SDS011;4379;59.744;18.206;2023-07-24T05:07:28;1.63;;;1.60;;
8683;SDS011;4379;59.744;18.206;2023-07-24T05:09:55;1.90;;;1.50;;
8683;SDS011;4379;59.744;18.206;2023-07-24T05:12:23;2.05;;;1.45;;
8683;SDS011;4379;59.744;18.206;2023-07-24T05:14:50;1.48;;;1.48;;
8683;SDS011;4379;59.744;18.206;2023-07-24T05:17:17;2.00;;;1.60;;
8683;SDS011;4379;59.744;18.206;2023-07-24T05:19:45;1.60;;;1.50;;
8683;SDS011;4379;59.744;18.206;2023-07-24T05:22:12;1.50;;;1.48;;
8683;SDS011;4379;59.744;18.206;2023-07-24T05:24:39;1.50;;;1.45;;
8683;SDS011;4379;59.744;18.206;2023-07-24T05:27:06;1.52;;;1.40;;
8683;SDS011;4379;59.744;18.206;2023-07-24T05:29:34;1.42;;;1.40;;
8683;SDS011;4379;59.744;18.206;2023-07-24T05:32:01;1.65;;;1.30;;
8683;SDS011;4379;59.744;18.206;2023-07-24T05:34:28;2.05;;;1.60;;
8683;SDS011;4379;59.744;18.206;2023-07-24T05:36:55;1.70;;;1.70;;
8683;SDS011;4379;59.744;18.206;2023-07-24T05:39:23;1.75;;;1.65;;
8683;SDS011;4379;59.744;18.206;2023-07-24T05:41:50;1.52;;;1.42;;
8683;SDS011;4379;59.744;18.206;2023-07-24T05:44:17;1.80;;;1.70;;
8683;SDS011;4379;59.744;18.206;2023-07-24T05:46:44;1.40;;;1.40;;
8683;SDS011;4379;59.744;18.206;2023-07-24T05:49:12;1.95;;;1.40;;
8683;SDS011;4379;59.744;18.206;2023-07-24T05:51:39;1.20;;;1.20;;
8683;SDS011;4379;59.744;18.206;2023-07-24T05:54:06;1.35;;;1.33;;
8683;SDS011;4379;59.744;18.206;2023-07-24T05:56:33;1.50;;;1.50;;
8683;SDS011;4379;59.744;18.206;2023-07-24T05:59:01;1.10;;;1.10;;
8683;SDS011;4379;59.744;18.206;2023-07-24T06:01:28;1.27;;;1.25;;
8683;SDS011;4379;59.744;18.206;2023-07-24T06:03:55;1.70;;;1.60;;
8683;SDS011;4379;59.744;18.206;2023-07-24T06:06:22;1.27;;;1.27;;
8683;SDS011;4379;59.744;18.206;2023-07-24T06:08:50;1.42;;;1.42;;
8683;SDS011;4379;59.744;18.206;2023-07-24T06:11:17;1.20;;;1.20;;
8683;SDS011;4379;59.744;18.206;2023-07-24T06:13:44;1.50;;;1.50;;
8683;SDS011;4379;59.744;18.206;2023-07-24T06:16:11;1.30;;;1.30;;
8683;SDS011;4379;59.744;18.206;2023-07-24T06:18:40;1.30;;;1.30;;
8683;SDS011;4379;59.744;18.206;2023-07-24T06:21:09;1.52;;;1.52;;
8683;SDS011;4379;59.744;18.206;2023-07-24T06:23:36;1.55;;;1.45;;
8683;SDS011;4379;59.744;18.206;2023-07-24T06:26:03;1.55;;;1.40;;
8683;SDS011;4379;59.744;18.206;2023-07-24T06:28:31;1.67;;;1.50;;
8683;SDS011;4379;59.744;18.206;2023-07-24T06:30:59;1.20;;;1.20;;
8683;SDS011;4379;59.744;18.206;2023-07-24T06:33:27;1.20;;;1.20;;
8683;SDS011;4379;59.744;18.206;2023-07-24T06:35:54;1.60;;;1.40;;
8683;SDS011;4379;59.744;18.206;2023-07-24T06:38:21;1.42;;;1.42;;
8683;SDS011;4379;59.744;18.206;2023-07-24T06:40:49;1.20;;;1.20;;
8683;SDS011;4379;59.744;18.206;2023-07-24T06:43:16;1.60;;;1.50;;
8683;SDS011;4379;59.744;18.206;2023-07-24T06:45:43;1.60;;;1.60;;
8683;SDS011;4379;59.744;18.206;2023-07-24T06:48:11;1.60;;;1.50;;
8683;SDS011;4379;59.744;18.206;2023-07-24T06:50:38;1.33;;;1.33;;
8683;SDS011;4379;59.744;18.206;2023-07-24T06:53:05;1.50;;;1.50;;
8683;SDS011;4379;59.744;18.206;2023-07-24T06:55:32;1.35;;;1.35;;
8683;SDS011;4379;59.744;18.206;2023-07-24T06:58:00;1.70;;;1.60;;
8683;SDS011;4379;59.744;18.206;2023-07-24T07:00:27;1.65;;;1.55;;
8683;SDS011;4379;59.744;18.206;2023-07-24T07:02:54;1.60;;;1.50;;
8683;SDS011;4379;59.744;18.206;2023-07-24T07:05:21;2.00;;;1.63;;
8683;SDS011;4379;59.744;18.206;2023-07-24T07:07:48;1.33;;;1.33;;
8683;SDS011;4379;59.744;18.206;2023-07-24T07:10:16;1.77;;;1.60;;
8683;SDS011;4379;59.744;18.206;2023-07-24T07:12:43;1.48;;;1.48;;
8683;SDS011;4379;59.744;18.206;2023-07-24T07:15:10;1.50;;;1.40;;
8683;SDS011;4379;59.744;18.206;2023-07-24T07:17:37;1.42;;;1.42;;
8683;SDS011;4379;59.744;18.206;2023-07-24T07:20:05;1.55;;;1.50;;
8683;SDS011;4379;59.744;18.206;2023-07-24T07:22:33;2.05;;;1.70;;
8683;SDS011;4379;59.744;18.206;2023-07-24T07:25:00;2.05;;;1.77;;
8683;SDS011;4379;59.744;18.206;2023-07-24T07:27:27;1.45;;;1.40;;
8683;SDS011;4379;59.744;18.206;2023-07-24T07:29:55;1.67;;;1.58;;
8683;SDS011;4379;59.744;18.206;2023-07-24T07:32:22;1.52;;;1.50;;
8683;SDS011;4379;59.744;18.206;2023-07-24T07:34:49;1.73;;;1.63;;
8683;SDS011;4379;59.744;18.206;2023-07-24T07:37:17;1.88;;;1.77;;
8683;SDS011;4379;59.744;18.206;2023-07-24T07:39:46;1.55;;;1.48;;
8683;SDS011;4379;59.744;18.206;2023-07-24T07:42:13;1.70;;;1.70;;
8683;SDS011;4379;59.744;18.206;2023-07-24T07:44:44;2.00;;;1.90;;
8683;SDS011;4379;59.744;18.206;2023-07-24T07:47:12;1.73;;;1.63;;
8683;SDS011;4379;59.744;18.206;2023-07-24T07:49:39;1.60;;;1.58;;
8683;SDS011;4379;59.744;18.206;2023-07-24T07:52:07;1.58;;;1.52;;
8683;SDS011;4379;59.744;18.206;2023-07-24T07:54:35;1.70;;;1.70;;
8683;SDS011;4379;59.744;18.206;2023-07-24T07:57:03;1.85;;;1.65;;
8683;SDS011;4379;59.744;18.206;2023-07-24T07:59:31;1.77;;;1.70;;
8683;SDS011;4379;59.744;18.206;2023-07-24T08:01:58;1.70;;;1.60;;
8683;SDS011;4379;59.744;18.206;2023-07-24T08:04:25;1.38;;;1.38;;
8683;SDS011;4379;59.744;18.206;2023-07-24T08:06:53;1.60;;;1.60;;
8683;SDS011;4379;59.744;18.206;2023-07-24T08:09:20;1.40;;;1.40;;
8683;SDS011;4379;59.744;18.206;2023-07-24T08:11:48;1.55;;;1.55;;
8683;SDS011;4379;59.744;18.206;2023-07-24T08:14:15;1.60;;;1.60;;
8683;SDS011;4379;59.744;18.206;2023-07-24T08:16:42;1.58;;;1.48;;
8683;SDS011;4379;59.744;18.206;2023-07-24T08:19:10;1.48;;;1.48;;
8683;SDS011;4379;59.744;18.206;2023-07-24T08:21:37;1.63;;;1.60;;
8683;SDS011;4379;59.744;18.206;2023-07-24T08:24:05;1.73;;;1.70;;
8683;SDS011;4379;59.744;18.206;2023-07-24T08:26:33;1.65;;;1.63;;
8683;SDS011;4379;59.744;18.206;2023-07-24T08:29:00;1.50;;;1.50;;
8683;SDS011;4379;59.744;18.206;2023-07-24T08:31:28;1.70;;;1.70;;
8683;SDS011;4379;59.744;18.206;2023-07-24T08:33:56;1.60;;;1.50;;
8683;SDS011;4379;59.744;18.206;2023-07-24T08:36:23;1.70;;;1.60;;
8683;SDS011;4379;59.744;18.206;2023-07-24T08:38:51;1.27;;;1.27;;
8683;SDS011;4379;59.744;18.206;2023-07-24T08:41:18;1.42;;;1.42;;
8683;SDS011;4379;59.744;18.206;2023-07-24T08:43:45;1.55;;;1.55;;
8683;SDS011;4379;59.744;18.206;2023-07-24T08:46:13;1.48;;;1.48;;
8683;SDS011;4379;59.744;18.206;2023-07-24T08:48:41;1.60;;;1.60;;
8683;SDS011;4379;59.744;18.206;2023-07-24T08:51:09;1.58;;;1.58;;
8683;SDS011;4379;59.744;18.206;2023-07-24T08:53:43;1.50;;;1.40;;
8683;SDS011;4379;59.744;18.206;2023-07-24T08:56:11;1.83;;;1.58;;
8683;SDS011;4379;59.744;18.206;2023-07-24T08:58:39;1.83;;;1.73;;
8683;SDS011;4379;59.744;18.206;2023-07-24T09:01:07;1.60;;;1.60;;
8683;SDS011;4379;59.744;18.206;2023-07-24T09:03:35;2.05;;;2.00;;
8683;SDS011;4379;59.744;18.206;2023-07-24T09:06:03;1.45;;;1.45;;
8683;SDS011;4379;59.744;18.206;2023-07-24T09:08:31;1.55;;;1.55;;
8683;SDS011;4379;59.744;18.206;2023-07-24T09:11:00;1.70;;;1.63;;
8683;SDS011;4379;59.744;18.206;2023-07-24T09:13:28;1.25;;;1.25;;
8683;SDS011;4379;59.744;18.206;2023-07-24T09:15:56;1.40;;;1.40;;
8683;SDS011;4379;59.744;18.206;2023-07-24T09:18:24;1.80;;;1.73;;
8683;SDS011;4379;59.744;18.206;2023-07-24T09:20:51;1.42;;;1.42;;
8683;SDS011;4379;59.744;18.206;2023-07-24T09:23:26;1.20;;;1.20;;
8683;SDS011;4379;59.744;18.206;2023-07-24T09:25:54;1.13;;;1.13;;
8683;SDS011;4379;59.744;18.206;2023-07-24T09:28:22;1.58;;;1.48;;
8683;SDS011;4379;59.744;18.206;2023-07-24T09:30:53;1.50;;;1.50;;
8683;SDS011;4379;59.744;18.206;2023-07-24T09:33:22;1.45;;;1.42;;
8683;SDS011;4379;59.744;18.206;2023-07-24T09:36:00;1.27;;;1.27;;
8683;SDS011;4379;59.744;18.206;2023-07-24T09:38:28;1.40;;;1.40;;
8683;SDS011;4379;59.744;18.206;2023-07-24T09:40:56;1.25;;;1.25;;
8683;SDS011;4379;59.744;18.206;2023-07-24T09:43:24;1.30;;;1.30;;
8683;SDS011;4379;59.744;18.206;2023-07-24T09:46:05;1.58;;;1.58;;
8683;SDS011;4379;59.744;18.206;2023-07-24T09:48:34;1.40;;;1.40;;
8683;SDS011;4379;59.744;18.206;2023-07-24T09:51:09;1.30;;;1.27;;
8683;SDS011;4379;59.744;18.206;2023-07-24T09:53:43;1.33;;;1.23;;
8683;SDS011;4379;59.744;18.206;2023-07-24T09:56:18;1.40;;;1.40;;
8683;SDS011;4379;59.744;18.206;2023-07-24T09:59:00;1.20;;;1.20;;
8683;SDS011;4379;59.744;18.206;2023-07-24T10:01:30;1.30;;;1.30;;
8683;SDS011;4379;59.744;18.206;2023-07-24T10:04:00;1.30;;;1.30;;
8683;SDS011;4379;59.744;18.206;2023-07-24T10:06:28;1.73;;;1.65;;
8683;SDS011;4379;59.744;18.206;2023-07-24T10:08:58;1.40;;;1.33;;
8683;SDS011;4379;59.744;18.206;2023-07-24T10:11:26;1.27;;;1.27;;
8683;SDS011;4379;59.744;18.206;2023-07-24T10:13:54;1.20;;;1.20;;
8683;SDS011;4379;59.744;18.206;2023-07-24T10:16:22;1.23;;;1.23;;
8683;SDS011;4379;59.744;18.206;2023-07-24T10:18:50;1.30;;;1.30;;
8683;SDS011;4379;59.744;18.206;2023-07-24T10:21:17;1.10;;;1.10;;
8683;SDS011;4379;59.744;18.206;2023-07-24T10:23:45;1.20;;;1.20;;
8683;SDS011;4379;59.744;18.206;2023-07-24T10:26:15;1.30;;;1.30;;
8683;SDS011;4379;59.744;18.206;2023-07-24T10:28:46;1.20;;;1.20;;
8683;SDS011;4379;59.744;18.206;2023-07-24T10:31:22;1.20;;;1.20;;
8683;SDS011;4379;59.744;18.206;2023-07-24T10:33:54;1.20;;;1.20;;
8683;SDS011;4379;59.744;18.206;2023-07-24T10:36:23;0.93;;;0.93;;
8683;SDS011;4379;59.744;18.206;2023-07-24T10:38:54;1.30;;;1.30;;
8683;SDS011;4379;59.744;18.206;2023-07-24T10:41:33;1.40;;;1.40;;
8683;SDS011;4379;59.744;18.206;2023-07-24T10:44:04;1.40;;;1.40;;
8683;SDS011;4379;59.744;18.206;2023-07-24T10:46:38;1.45;;;1.33;;
8683;SDS011;4379;59.744;18.206;2023-07-24T10:49:07;1.60;;;1.25;;
8683;SDS011;4379;59.744;18.206;2023-07-24T10:51:35;1.30;;;1.30;;
8683;SDS011;4379;59.744;18.206;2023-07-24T10:54:04;1.50;;;1.40;;
8683;SDS011;4379;59.744;18.206;2023-07-24T10:56:32;1.30;;;1.30;;
8683;SDS011;4379;59.744;18.206;2023-07-24T10:59:03;1.30;;;1.27;;
8683;SDS011;4379;59.744;18.206;2023-07-24T11:01:31;1.10;;;1.10;;
8683;SDS011;4379;59.744;18.206;2023-07-24T11:04:00;1.95;;;1.23;;
8683;SDS011;4379;59.744;18.206;2023-07-24T11:06:27;1.10;;;1.10;;
8683;SDS011;4379;59.744;18.206;2023-07-24T11:08:55;1.35;;;1.30;;
8683;SDS011;4379;59.744;18.206;2023-07-24T11:11:33;1.60;;;1.40;;
8683;SDS011;4379;59.744;18.206;2023-07-24T11:14:03;1.08;;;1.08;;
8683;SDS011;4379;59.744;18.206;2023-07-24T11:16:30;1.35;;;1.25;;
8683;SDS011;4379;59.744;18.206;2023-07-24T11:19:00;1.10;;;1.10;;
8683;SDS011;4379;59.744;18.206;2023-07-24T11:21:27;0.90;;;0.90;;
8683;SDS011;4379;59.744;18.206;2023-07-24T11:23:57;1.13;;;1.13;;
8683;SDS011;4379;59.744;18.206;2023-07-24T11:26:25;1.88;;;1.20;;
8683;SDS011;4379;59.744;18.206;2023-07-24T11:28:53;1.20;;;1.20;;
8683;SDS011;4379;59.744;18.206;2023-07-24T11:31:21;0.98;;;0.98;;
8683;SDS011;4379;59.744;18.206;2023-07-24T11:33:49;1.10;;;1.10;;
8683;SDS011;4379;59.744;18.206;2023-07-24T11:36:18;1.00;;;1.00;;
8683;SDS011;4379;59.744;18.206;2023-07-24T11:38:46;0.80;;;0.80;;
8683;SDS011;4379;59.744;18.206;2023-07-24T11:41:15;0.85;;;0.85;;
8683;SDS011;4379;59.744;18.206;2023-07-24T11:43:48;1.00;;;1.00;;
8683;SDS011;4379;59.744;18.206;2023-07-24T11:46:27;1.02;;;1.02;;
8683;SDS011;4379;59.744;18.206;2023-07-24T11:48:56;0.80;;;0.80;;
8683;SDS011;4379;59.744;18.206;2023-07-24T11:51:25;0.90;;;0.90;;
8683;SDS011;4379;59.744;18.206;2023-07-24T11:54:07;0.90;;;0.88;;
8683;SDS011;4379;59.744;18.206;2023-07-24T11:56:38;0.93;;;0.93;;
8683;SDS011;4379;59.744;18.206;2023-07-24T11:59:12;1.15;;;1.15;;
8683;SDS011;4379;59.744;18.206;2023-07-24T12:01:41;0.98;;;0.98;;
8683;SDS011;4379;59.744;18.206;2023-07-24T12:04:12;1.00;;;1.00;;
8683;SDS011;4379;59.744;18.206;2023-07-24T12:06:41;1.00;;;1.00;;
8683;SDS011;4379;59.744;18.206;2023-07-24T12:09:08;1.08;;;1.08;;
8683;SDS011;4379;59.744;18.206;2023-07-24T12:11:41;1.10;;;1.10;;
8683;SDS011;4379;59.744;18.206;2023-07-24T12:14:15;1.20;;;1.20;;
8683;SDS011;4379;59.744;18.206;2023-07-24T12:16:42;0.95;;;0.95;;
8683;SDS011;4379;59.744;18.206;2023-07-24T12:19:10;1.00;;;1.00;;
8683;SDS011;4379;59.744;18.206;2023-07-24T12:21:37;1.17;;;1.17;;
8683;SDS011;4379;59.744;18.206;2023-07-24T12:24:05;1.00;;;1.00;;
8683;SDS011;4379;59.744;18.206;2023-07-24T12:26:32;1.02;;;1.00;;
8683;SDS011;4379;59.744;18.206;2023-07-24T12:29:00;1.00;;;1.00;;
8683;SDS011;4379;59.744;18.206;2023-07-24T12:31:27;0.80;;;0.80;;
8683;SDS011;4379;59.744;18.206;2023-07-24T12:33:55;1.10;;;1.10;;
8683;SDS011;4379;59.744;18.206;2023-07-24T12:36:23;1.20;;;1.20;;
8683;SDS011;4379;59.744;18.206;2023-07-24T12:38:50;0.90;;;0.90;;
8683;SDS011;4379;59.744;18.206;2023-07-24T12:41:18;0.90;;;0.90;;
8683;SDS011;4379;59.744;18.206;2023-07-24T12:43:45;1.13;;;1.13;;
8683;SDS011;4379;59.744;18.206;2023-07-24T12:46:12;1.02;;;1.02;;
8683;SDS011;4379;59.744;18.206;2023-07-24T12:48:39;1.02;;;1.02;;
8683;SDS011;4379;59.744;18.206;2023-07-24T12:51:07;1.25;;;1.25;;
8683;SDS011;4379;59.744;18.206;2023-07-24T12:53:34;3.40;;;1.40;;
8683;SDS011;4379;59.744;18.206;2023-07-24T12:56:14;0.88;;;0.88;;
8683;SDS011;4379;59.744;18.206;2023-07-24T12:58:41;1.27;;;0.90;;
8683;SDS011;4379;59.744;18.206;2023-07-24T13:01:08;1.13;;;1.05;;
8683;SDS011;4379;59.744;18.206;2023-07-24T13:03:48;1.00;;;1.00;;
8683;SDS011;4379;59.744;18.206;2023-07-24T13:06:58;2.30;;;1.20;;
8683;SDS011;4379;59.744;18.206;2023-07-24T13:09:27;0.80;;;0.80;;
8683;SDS011;4379;59.744;18.206;2023-07-24T13:11:54;0.90;;;0.90;;
8683;SDS011;4379;59.744;18.206;2023-07-24T13:14:21;0.90;;;0.90;;
8683;SDS011;4379;59.744;18.206;2023-07-24T13:16:50;0.85;;;0.85;;
8683;SDS011;4379;59.744;18.206;2023-07-24T13:19:18;0.70;;;0.70;;
8683;SDS011;4379;59.744;18.206;2023-07-24T13:21:47;1.00;;;1.00;;
8683;SDS011;4379;59.744;18.206;2023-07-24T13:24:14;0.80;;;0.80;;
8683;SDS011;4379;59.744;18.206;2023-07-24T13:26:42;1.33;;;0.88;;
8683;SDS011;4379;59.744;18.206;2023-07-24T13:29:10;0.88;;;0.88;;
8683;SDS011;4379;59.744;18.206;2023-07-24T13:31:37;1.10;;;1.10;;
8683;SDS011;4379;59.744;18.206;2023-07-24T13:34:07;0.85;;;0.85;;
8683;SDS011;4379;59.744;18.206;2023-07-24T13:36:37;0.93;;;0.80;;
8683;SDS011;4379;59.744;18.206;2023-07-24T13:39:04;0.80;;;0.80;;
8683;SDS011;4379;59.744;18.206;2023-07-24T13:41:32;0.90;;;0.90;;
8683;SDS011;4379;59.744;18.206;2023-07-24T13:44:00;0.85;;;0.85;;
8683;SDS011;4379;59.744;18.206;2023-07-24T13:46:28;1.25;;;0.88;;
8683;SDS011;4379;59.744;18.206;2023-07-24T13:48:56;0.70;;;0.70;;
8683;SDS011;4379;59.744;18.206;2023-07-24T13:51:23;0.90;;;0.90;;
8683;SDS011;4379;59.744;18.206;2023-07-24T13:53:50;0.88;;;0.88;;
8683;SDS011;4379;59.744;18.206;2023-07-24T13:56:18;0.70;;;0.70;;
8683;SDS011;4379;59.744;18.206;2023-07-24T13:58:45;0.85;;;0.85;;
8683;SDS011;4379;59.744;18.206;2023-07-24T14:01:13;0.80;;;0.80;;
8683;SDS011;4379;59.744;18.206;2023-07-24T14:03:41;0.90;;;0.90;;
8683;SDS011;4379;59.744;18.206;2023-07-24T14:06:08;0.80;;;0.80;;
8683;SDS011;4379;59.744;18.206;2023-07-24T14:08:35;1.88;;;0.88;;
8683;SDS011;4379;59.744;18.206;2023-07-24T14:11:03;0.93;;;0.93;;
8683;SDS011;4379;59.744;18.206;2023-07-24T14:13:30;1.20;;;1.08;;
8683;SDS011;4379;59.744;18.206;2023-07-24T14:15:58;0.95;;;0.95;;
8683;SDS011;4379;59.744;18.206;2023-07-24T14:18:25;0.85;;;0.85;;
8683;SDS011;4379;59.744;18.206;2023-07-24T14:20:52;0.90;;;0.90;;
8683;SDS011;4379;59.744;18.206;2023-07-24T14:23:22;0.85;;;0.85;;
8683;SDS011;4379;59.744;18.206;2023-07-24T14:25:49;0.73;;;0.73;;
8683;SDS011;4379;59.744;18.206;2023-07-24T14:28:16;0.90;;;0.90;;
8683;SDS011;4379;59.744;18.206;2023-07-24T14:30:43;0.80;;;0.77;;
8683;SDS011;4379;59.744;18.206;2023-07-24T14:33:11;0.90;;;0.90;;
8683;SDS011;4379;59.744;18.206;2023-07-24T14:35:38;0.80;;;0.80;;
8683;SDS011;4379;59.744;18.206;2023-07-24T14:38:05;0.80;;;0.80;;
8683;SDS011;4379;59.744;18.206;2023-07-24T14:40:32;0.80;;;0.80;;
8683;SDS011;4379;59.744;18.206;2023-07-24T14:43:00;0.80;;;0.80;;
8683;SDS011;4379;59.744;18.206;2023-07-24T14:45:32;2.22;;;0.90;;
8683;SDS011;4379;59.744;18.206;2023-07-24T14:48:00;1.02;;;0.90;;
8683;SDS011;4379;59.744;18.206;2023-07-24T14:50:27;1.45;;;1.00;;
8683;SDS011;4379;59.744;18.206;2023-07-24T14:52:55;1.00;;;1.00;;
8683;SDS011;4379;59.744;18.206;2023-07-24T14:55:22;1.13;;;1.10;;
8683;SDS011;4379;59.744;18.206;2023-07-24T14:57:50;0.80;;;0.80;;
8683;SDS011;4379;59.744;18.206;2023-07-24T15:00:17;2.85;;;1.25;;
8683;SDS011;4379;59.744;18.206;2023-07-24T15:02:53;3.78;;;1.92;;
8683;SDS011;4379;59.744;18.206;2023-07-24T15:05:24;1.00;;;1.00;;
8683;SDS011;4379;59.744;18.206;2023-07-24T15:08:03;1.23;;;0.93;;
8683;SDS011;4379;59.744;18.206;2023-07-24T15:10:31;0.70;;;0.70;;